RYR339 EIDW-EGCC
Flight info
| Callsign | RYR339 |
|---|---|
| Flight time | N/A |
| Altitude | 21000 |
| Route | BOFUM3J BOFUM Q37 MALUD |
| Aircraft | B738/M-SDE2E3FGHIRWXY/LB1 |
Departure
| Time | 2026-05-07 20:09 |
|---|---|
| Airport | Dublin Airport (EIDW) |
Arrival
| Time | N/A |
|---|---|
| Airport | Manchester Airport (EGCC) |
| Time | Latitude | Longitude | Altitude | Speed | Heading |
|---|---|---|---|---|---|
| 2026-05-07 19:40 | 53.43295 | -6.25080 | 250 ft | 0 kts | 51° |
| 2026-05-07 19:56 | 53.43292 | -6.25086 | 250 ft | 1 kts | 18° |
| 2026-05-07 19:56 | 53.43278 | -6.25091 | 250 ft | 2 kts | 19° |
| 2026-05-07 19:56 | 53.43264 | -6.25100 | 250 ft | 2 kts | 20° |
| 2026-05-07 19:56 | 53.43250 | -6.25108 | 250 ft | 1 kts | 19° |
| 2026-05-07 19:57 | 53.43244 | -6.25111 | 250 ft | 0 kts | 54° |
| 2026-05-07 19:57 | 53.43241 | -6.25118 | 250 ft | 0 kts | 96° |
| 2026-05-07 19:57 | 53.43243 | -6.25129 | 250 ft | 0 kts | 98° |
| 2026-05-07 19:57 | 53.43243 | -6.25130 | 250 ft | 0 kts | 97° |
| 2026-05-07 20:01 | 53.43243 | -6.25129 | 250 ft | 0 kts | 97° |
| 2026-05-07 20:02 | 53.43243 | -6.25127 | 250 ft | 0 kts | 95° |
| 2026-05-07 20:02 | 53.43242 | -6.25107 | 250 ft | 3 kts | 92° |
| 2026-05-07 20:02 | 53.43239 | -6.25028 | 250 ft | 9 kts | 95° |
| 2026-05-07 20:03 | 53.43232 | -6.24897 | 250 ft | 13 kts | 92° |
| 2026-05-07 20:03 | 53.43216 | -6.24724 | 250 ft | 16 kts | 109° |
| 2026-05-07 20:03 | 53.43191 | -6.24541 | 250 ft | 16 kts | 96° |
| 2026-05-07 20:03 | 53.43227 | -6.24415 | 250 ft | 13 kts | 15° |
| 2026-05-07 20:04 | 53.43305 | -6.24392 | 250 ft | 8 kts | 27° |
| 2026-05-07 20:04 | 53.43330 | -6.24330 | 250 ft | 6 kts | 76° |
| 2026-05-07 20:04 | 53.43332 | -6.24246 | 250 ft | 8 kts | 95° |
| 2026-05-07 20:04 | 53.43323 | -6.24120 | 250 ft | 12 kts | 96° |
| 2026-05-07 20:05 | 53.43315 | -6.23946 | 250 ft | 15 kts | 89° |
| 2026-05-07 20:05 | 53.43403 | -6.23850 | 250 ft | 19 kts | 6° |
| 2026-05-07 20:05 | 53.43483 | -6.23910 | 250 ft | 11 kts | 279° |
| 2026-05-07 20:05 | 53.43484 | -6.23917 | 250 ft | 0 kts | 279° |
| 2026-05-07 20:07 | 53.43484 | -6.23918 | 250 ft | 0 kts | 279° |
| 2026-05-07 20:08 | 53.43484 | -6.23924 | 250 ft | 2 kts | 278° |
| 2026-05-07 20:08 | 53.43503 | -6.24236 | 250 ft | 66 kts | 275° |
| 2026-05-07 20:08 | 53.43568 | -6.25447 | 250 ft | 142 kts | 275° |
| 2026-05-07 20:08 | 53.43657 | -6.27371 | 572 ft | 176 kts | 276° |
| 2026-05-07 20:09 | 53.44111 | -6.29182 | 1503 ft | 175 kts | 300° |
| 2026-05-07 20:09 | 53.44797 | -6.30950 | 2072 ft | 201 kts | 300° |
| 2026-05-07 20:09 | 53.45714 | -6.33167 | 1821 ft | 241 kts | 307° |
| 2026-05-07 20:10 | 53.48546 | -6.34941 | 2219 ft | 216 kts | 356° |
| 2026-05-07 20:10 | 53.50080 | -6.34965 | 2798 ft | 226 kts | 0° |
| 2026-05-07 20:10 | 53.51652 | -6.34146 | 3435 ft | 256 kts | 34° |
| 2026-05-07 20:10 | 53.52903 | -6.31922 | 4090 ft | 279 kts | 61° |
| 2026-05-07 20:11 | 53.53469 | -6.28810 | 4676 ft | 279 kts | 89° |
| 2026-05-07 20:11 | 53.53141 | -6.25660 | 5251 ft | 276 kts | 115° |
| 2026-05-07 20:11 | 53.52568 | -6.22611 | 5830 ft | 278 kts | 107° |
| 2026-05-07 20:11 | 53.52139 | -6.19438 | 6398 ft | 280 kts | 101° |
| 2026-05-07 20:12 | 53.51812 | -6.16209 | 6960 ft | 282 kts | 100° |
| 2026-05-07 20:12 | 53.51511 | -6.12971 | 7518 ft | 284 kts | 100° |
| 2026-05-07 20:12 | 53.51217 | -6.09725 | 8085 ft | 286 kts | 99° |
| 2026-05-07 20:12 | 53.50915 | -6.06396 | 8640 ft | 288 kts | 99° |
| 2026-05-07 20:13 | 53.50618 | -6.03104 | 9215 ft | 290 kts | 99° |
| 2026-05-07 20:13 | 53.50313 | -5.99744 | 9804 ft | 291 kts | 100° |
| 2026-05-07 20:13 | 53.50007 | -5.96377 | 10419 ft | 306 kts | 100° |
| 2026-05-07 20:13 | 53.49671 | -5.92690 | 11045 ft | 331 kts | 100° |
| 2026-05-07 20:14 | 53.49313 | -5.88787 | 11667 ft | 355 kts | 100° |
| 2026-05-07 20:14 | 53.49011 | -5.84592 | 12247 ft | 368 kts | 90° |
| 2026-05-07 20:14 | 53.49449 | -5.80371 | 12839 ft | 370 kts | 77° |
| 2026-05-07 20:14 | 53.50044 | -5.76168 | 13401 ft | 373 kts | 77° |
| 2026-05-07 20:15 | 53.50647 | -5.71914 | 13961 ft | 377 kts | 77° |
| 2026-05-07 20:15 | 53.51247 | -5.67667 | 14515 ft | 380 kts | 78° |
| 2026-05-07 20:15 | 53.51857 | -5.63331 | 15080 ft | 384 kts | 78° |
| 2026-05-07 20:15 | 53.52468 | -5.58981 | 15638 ft | 387 kts | 78° |
| 2026-05-07 20:16 | 53.53087 | -5.54564 | 16201 ft | 391 kts | 78° |
| 2026-05-07 20:16 | 53.53616 | -5.50066 | 16744 ft | 393 kts | 88° |
| 2026-05-07 20:16 | 53.53457 | -5.45524 | 17335 ft | 394 kts | 97° |
| 2026-05-07 20:16 | 53.53201 | -5.40968 | 17892 ft | 398 kts | 97° |
| 2026-05-07 20:17 | 53.52929 | -5.36302 | 18455 ft | 401 kts | 97° |
| 2026-05-07 20:17 | 53.52656 | -5.31653 | 19017 ft | 405 kts | 98° |
| 2026-05-07 20:17 | 53.52380 | -5.27001 | 19579 ft | 407 kts | 98° |
| 2026-05-07 20:17 | 53.52099 | -5.22279 | 20145 ft | 411 kts | 98° |
| 2026-05-07 20:18 | 53.51813 | -5.17517 | 20715 ft | 413 kts | 98° |
| 2026-05-07 20:18 | 53.51519 | -5.12660 | 21037 ft | 420 kts | 98° |
| 2026-05-07 20:18 | 53.51226 | -5.07825 | 21035 ft | 420 kts | 98° |
| 2026-05-07 20:18 | 53.50930 | -5.02993 | 21037 ft | 416 kts | 98° |
| 2026-05-07 20:19 | 53.50633 | -4.98165 | 20780 ft | 417 kts | 98° |
| 2026-05-07 20:19 | 53.50337 | -4.93392 | 20627 ft | 414 kts | 98° |
| 2026-05-07 20:19 | 53.50042 | -4.88663 | 20477 ft | 413 kts | 98° |
| 2026-05-07 20:19 | 53.49743 | -4.83910 | 20477 ft | 412 kts | 98° |
| 2026-05-07 20:20 | 53.49442 | -4.79161 | 20476 ft | 412 kts | 98° |
| 2026-05-07 20:20 | 53.49142 | -4.74434 | 20475 ft | 413 kts | 98° |
| 2026-05-07 20:20 | 53.48835 | -4.69640 | 20474 ft | 413 kts | 98° |
| 2026-05-07 20:20 | 53.48529 | -4.64904 | 20475 ft | 413 kts | 98° |
| 2026-05-07 20:21 | 53.48218 | -4.60091 | 20479 ft | 413 kts | 98° |
| 2026-05-07 20:21 | 53.47909 | -4.55354 | 20476 ft | 413 kts | 98° |
| 2026-05-07 20:21 | 53.47595 | -4.50602 | 20476 ft | 412 kts | 98° |
| 2026-05-07 20:21 | 53.47280 | -4.45831 | 20478 ft | 412 kts | 98° |
| 2026-05-07 20:22 | 53.46963 | -4.41067 | 20476 ft | 412 kts | 98° |
| 2026-05-07 20:22 | 53.46644 | -4.36279 | 20483 ft | 412 kts | 98° |
| 2026-05-07 20:22 | 53.46323 | -4.31521 | 20482 ft | 412 kts | 98° |
| 2026-05-07 20:22 | 53.46000 | -4.26746 | 20477 ft | 412 kts | 98° |
| 2026-05-07 20:23 | 53.45680 | -4.22049 | 20476 ft | 412 kts | 98° |
| 2026-05-07 20:23 | 53.45350 | -4.17236 | 20474 ft | 412 kts | 98° |
| 2026-05-07 20:23 | 53.45026 | -4.12528 | 20470 ft | 412 kts | 98° |
| 2026-05-07 20:23 | 53.44694 | -4.07745 | 20466 ft | 412 kts | 98° |
| 2026-05-07 20:24 | 53.44363 | -4.02999 | 20469 ft | 412 kts | 98° |
| 2026-05-07 20:24 | 53.44196 | -4.00608 | 20467 ft | 412 kts | 98° |
| 2026-05-07 20:24 | 53.43961 | -3.97271 | 20465 ft | 412 kts | 98° |